createdAt,value
2017-11-04T00:00:12.260Z,33.30
2017-11-04T00:02:39.148Z,37.50
2017-11-04T00:05:05.725Z,37.67
2017-11-04T00:07:32.501Z,35.93
2017-11-04T00:09:59.178Z,36.57
2017-11-04T00:12:25.860Z,36.13
2017-11-04T00:14:52.764Z,37.17
2017-11-04T00:17:19.450Z,36.13
2017-11-04T00:19:46.092Z,37.17
2017-11-04T00:22:12.724Z,36.87
2017-11-04T00:24:39.335Z,34.27
2017-11-04T00:27:06.019Z,33.93
2017-11-04T00:29:32.642Z,31.97
2017-11-04T00:31:59.316Z,31.80
2017-11-04T00:34:25.886Z,32.33
2017-11-04T00:36:52.518Z,31.43
2017-11-04T00:39:19.222Z,37.17
2017-11-04T00:41:46.055Z,39.43
2017-11-04T00:44:12.626Z,38.40
2017-11-04T00:46:39.224Z,40.80
2017-11-04T00:49:05.880Z,38.07
2017-11-04T00:51:32.512Z,39.63
2017-11-04T00:53:59.149Z,37.70
2017-11-04T00:56:25.740Z,38.00
2017-11-04T00:58:52.365Z,35.43
2017-11-04T01:01:18.970Z,36.60
2017-11-04T01:03:45.586Z,38.27
2017-11-04T01:06:12.204Z,35.70
2017-11-04T01:08:38.842Z,37.47
2017-11-04T01:11:05.453Z,40.80
2017-11-04T01:13:32.068Z,37.57
2017-11-04T01:15:59.016Z,40.50
2017-11-04T01:18:25.656Z,38.40
2017-11-04T01:20:52.317Z,37.87
2017-11-04T01:23:18.892Z,39.40
2017-11-04T01:25:45.782Z,37.10
2017-11-04T01:28:12.480Z,38.63
2017-11-04T01:30:39.104Z,36.47
2017-11-04T01:33:05.774Z,39.50
2017-11-04T01:35:32.370Z,39.97
2017-11-04T01:37:59.037Z,39.47
2017-11-04T01:40:25.634Z,40.90
2017-11-04T01:42:52.270Z,40.33
2017-11-04T01:45:18.877Z,38.80
2017-11-04T01:47:45.498Z,42.13
2017-11-04T01:50:12.118Z,41.57
2017-11-04T01:52:38.719Z,40.00
2017-11-04T01:55:05.377Z,42.30
2017-11-04T01:57:32.016Z,42.70
2017-11-04T01:59:58.636Z,39.77
2017-11-04T02:02:25.243Z,39.10
2017-11-04T02:04:51.854Z,39.27
2017-11-04T02:07:18.441Z,39.60
2017-11-04T02:09:45.135Z,36.93
2017-11-04T02:12:11.905Z,40.90
2017-11-04T02:14:38.904Z,38.27
2017-11-04T02:17:05.511Z,35.90
2017-11-04T02:19:32.163Z,36.80
2017-11-04T02:21:58.758Z,37.77
2017-11-04T02:24:25.376Z,38.60
2017-11-04T02:26:52.005Z,39.83
2017-11-04T02:29:18.632Z,42.40
2017-11-04T02:31:45.250Z,37.47
2017-11-04T02:34:11.838Z,36.10
2017-11-04T02:36:38.628Z,35.00
2017-11-04T02:39:05.213Z,35.87
2017-11-04T02:41:31.833Z,38.63
2017-11-04T02:43:58.465Z,36.17
2017-11-04T02:46:25.055Z,34.80
2017-11-04T02:48:51.680Z,37.30
2017-11-04T02:51:18.276Z,36.07
2017-11-04T02:53:44.920Z,36.33
2017-11-04T02:56:11.505Z,36.47
2017-11-04T02:58:38.084Z,36.77
2017-11-04T03:01:04.713Z,36.87
2017-11-04T03:03:31.321Z,36.73
2017-11-04T03:05:57.909Z,36.57
2017-11-04T03:08:24.550Z,35.50
2017-11-04T03:10:51.164Z,36.47
2017-11-04T03:13:17.898Z,37.43
2017-11-04T03:15:44.543Z,37.97
2017-11-04T03:18:11.185Z,37.53
2017-11-04T03:20:37.811Z,36.37
2017-11-04T03:23:04.507Z,38.50
2017-11-04T03:25:31.098Z,35.50
2017-11-04T03:27:58.004Z,35.70
2017-11-04T03:30:24.626Z,36.20
2017-11-04T03:32:51.289Z,35.67
2017-11-04T03:35:17.973Z,36.00
2017-11-04T03:37:44.710Z,35.50
2017-11-04T03:40:11.323Z,36.93
2017-11-04T03:42:37.955Z,37.77
2017-11-04T03:45:04.562Z,39.30
2017-11-04T03:47:31.161Z,36.40
2017-11-04T03:49:57.825Z,37.43
2017-11-04T03:52:24.463Z,36.30
2017-11-04T03:54:51.372Z,35.90
2017-11-04T03:57:18.024Z,34.47
2017-11-04T03:59:44.769Z,34.10
2017-11-04T04:02:11.395Z,36.07
2017-11-04T04:04:38.071Z,35.03
2017-11-04T04:07:04.805Z,34.00
2017-11-04T04:09:31.643Z,31.43
2017-11-04T04:11:58.243Z,34.20
2017-11-04T04:14:24.873Z,35.20
2017-11-04T04:16:51.482Z,36.67
2017-11-04T04:19:18.085Z,35.97
2017-11-04T04:21:44.687Z,35.40
2017-11-04T04:24:11.279Z,33.70
2017-11-04T04:26:37.895Z,35.43
2017-11-04T04:29:04.519Z,38.97
2017-11-04T04:31:31.163Z,35.90
2017-11-04T04:33:57.823Z,35.17
2017-11-04T04:36:24.417Z,35.33
2017-11-04T04:38:51.029Z,36.13
2017-11-04T04:41:17.642Z,34.87
2017-11-04T04:43:44.295Z,35.23
2017-11-04T04:46:10.892Z,34.50
2017-11-04T04:48:37.484Z,34.60
2017-11-04T04:51:04.258Z,36.00
2017-11-04T04:53:30.892Z,34.87
2017-11-04T04:55:57.497Z,32.93
2017-11-04T04:58:24.120Z,32.60
2017-11-04T05:00:50.750Z,33.70
2017-11-04T05:03:17.372Z,33.70
2017-11-04T05:05:43.967Z,34.17
2017-11-04T05:08:10.567Z,31.03
2017-11-04T05:10:37.168Z,31.37
2017-11-04T05:13:03.907Z,31.63
2017-11-04T05:15:30.519Z,30.80
2017-11-04T05:17:57.401Z,30.63
2017-11-04T05:20:24.022Z,32.37
2017-11-04T05:22:51.355Z,32.53
2017-11-04T05:25:17.967Z,32.70
2017-11-04T05:27:44.596Z,31.10
2017-11-04T05:30:11.210Z,31.43
2017-11-04T05:32:37.796Z,30.00
2017-11-04T05:35:04.411Z,32.27
2017-11-04T05:37:31.049Z,31.33
2017-11-04T05:39:57.653Z,31.20
2017-11-04T05:42:24.320Z,31.93
2017-11-04T05:44:51.296Z,31.43
2017-11-04T05:47:17.884Z,29.80
2017-11-04T05:49:44.595Z,29.40
2017-11-04T05:52:17.765Z,30.67
2017-11-04T05:54:44.525Z,33.10
2017-11-04T05:57:11.446Z,35.43
2017-11-04T05:59:38.370Z,32.57
2017-11-04T06:02:04.966Z,32.77
2017-11-04T06:04:32.022Z,30.47
2017-11-04T06:06:58.627Z,30.50
2017-11-04T06:09:25.489Z,32.37
2017-11-04T06:11:52.104Z,33.37
2017-11-04T06:14:18.704Z,32.87
2017-11-04T06:16:45.545Z,29.77
2017-11-04T06:19:12.412Z,32.07
2017-11-04T06:21:39.132Z,31.27
2017-11-04T06:24:06.017Z,28.97
2017-11-04T06:26:32.723Z,31.10
2017-11-04T06:28:59.339Z,32.10
2017-11-04T06:31:26.256Z,31.80
2017-11-04T06:33:52.877Z,30.50
2017-11-04T06:36:19.473Z,30.43
2017-11-04T06:38:46.096Z,30.27
2017-11-04T06:41:12.731Z,30.23
2017-11-04T06:43:39.367Z,31.23
2017-11-04T06:46:05.947Z,28.00
2017-11-04T06:48:32.561Z,34.33
2017-11-04T06:50:59.311Z,30.40
2017-11-04T06:53:26.620Z,29.60
2017-11-04T06:55:53.348Z,28.83
2017-11-04T06:58:19.925Z,29.80
2017-11-04T07:00:46.581Z,27.07
2017-11-04T07:03:13.192Z,27.63
2017-11-04T07:05:39.793Z,29.13
2017-11-04T07:08:06.507Z,27.80
2017-11-04T07:10:33.313Z,29.30
2017-11-04T07:12:59.955Z,27.57
2017-11-04T07:15:26.577Z,28.47
2017-11-04T07:17:53.222Z,28.30
2017-11-04T07:20:19.966Z,26.40
2017-11-04T07:22:46.613Z,27.00
2017-11-04T07:25:13.193Z,30.07
2017-11-04T07:27:39.801Z,27.03
2017-11-04T07:30:06.396Z,28.60
2017-11-04T07:32:33.001Z,28.20
2017-11-04T07:34:59.636Z,29.43
2017-11-04T07:37:26.248Z,26.50
2017-11-04T07:39:52.893Z,29.07
2017-11-04T07:42:19.488Z,29.17
2017-11-04T07:44:46.125Z,28.97
2017-11-04T07:47:12.771Z,27.80
2017-11-04T07:49:39.350Z,28.40
2017-11-04T07:52:07.785Z,27.67
2017-11-04T07:54:34.436Z,30.00
2017-11-04T07:57:01.053Z,29.17
2017-11-04T07:59:27.711Z,29.40
2017-11-04T08:01:54.306Z,29.47
2017-11-04T08:04:21.579Z,28.63
2017-11-04T08:06:48.174Z,30.93
2017-11-04T08:09:14.803Z,29.13
2017-11-04T08:11:41.391Z,29.07
2017-11-04T08:14:08.012Z,29.43
2017-11-04T08:16:34.608Z,30.77
2017-11-04T08:19:01.203Z,29.67
2017-11-04T08:21:27.812Z,27.87
2017-11-04T08:23:54.598Z,30.27
2017-11-04T08:26:21.315Z,29.23
2017-11-04T08:28:47.948Z,29.43
2017-11-04T08:31:14.552Z,31.60
2017-11-04T08:33:41.243Z,30.23
2017-11-04T08:36:07.845Z,29.63
2017-11-04T08:38:34.562Z,30.13
2017-11-04T08:41:01.457Z,30.52
2017-11-04T08:43:28.083Z,29.43
2017-11-04T08:45:54.672Z,31.50
2017-11-04T08:48:21.605Z,48.97
2017-11-04T08:50:48.369Z,35.87
2017-11-04T08:53:16.573Z,33.17
2017-11-04T08:55:44.988Z,34.10
2017-11-04T08:58:11.592Z,31.77
2017-11-04T09:00:38.545Z,32.07
2017-11-04T09:03:06.033Z,33.50
2017-11-04T09:05:32.668Z,31.67
2017-11-04T09:08:00.395Z,33.00
2017-11-04T09:10:27.029Z,31.43
2017-11-04T09:12:54.288Z,33.63
2017-11-04T09:15:20.915Z,31.97
2017-11-04T09:17:47.580Z,32.87
2017-11-04T09:20:14.224Z,31.23
2017-11-04T09:22:40.913Z,33.33
2017-11-04T09:25:07.499Z,33.60
2017-11-04T09:27:34.111Z,31.93
2017-11-04T09:30:00.736Z,32.43
2017-11-04T09:32:27.370Z,33.47
2017-11-04T09:34:54.093Z,33.40
2017-11-04T09:37:20.706Z,32.50
2017-11-04T09:39:47.306Z,30.33
2017-11-04T09:42:13.907Z,32.80
2017-11-04T09:44:40.546Z,31.20
2017-11-04T09:47:07.123Z,32.33
2017-11-04T09:49:33.752Z,33.47
2017-11-04T09:52:00.428Z,31.43
2017-11-04T09:54:27.038Z,32.03
2017-11-04T09:56:53.698Z,33.30
2017-11-04T09:59:20.334Z,31.60
2017-11-04T10:01:47.008Z,32.80
2017-11-04T10:04:13.644Z,32.17
2017-11-04T10:06:40.322Z,30.13
2017-11-04T10:09:06.938Z,32.83
2017-11-04T10:11:33.539Z,34.73
2017-11-04T10:14:00.177Z,31.90
2017-11-04T10:16:26.826Z,31.20
2017-11-04T10:18:53.452Z,31.53
2017-11-04T10:21:20.140Z,36.90
2017-11-04T10:23:46.813Z,30.27
2017-11-04T10:26:13.397Z,40.83
2017-11-04T10:28:40.152Z,34.20
2017-11-04T10:31:06.952Z,32.00
2017-11-04T10:33:33.564Z,32.97
2017-11-04T10:36:00.187Z,32.63
2017-11-04T10:38:26.807Z,31.90
2017-11-04T10:40:53.767Z,31.37
2017-11-04T10:43:20.400Z,32.63
2017-11-04T10:45:47.010Z,33.57
2017-11-04T10:48:13.657Z,33.47
2017-11-04T10:50:40.261Z,31.87
2017-11-04T10:53:07.147Z,30.40
2017-11-04T10:55:33.805Z,31.67
2017-11-04T10:58:00.805Z,32.17
2017-11-04T11:00:27.426Z,32.13
2017-11-04T11:02:54.084Z,32.23
2017-11-04T11:05:21.039Z,31.50
2017-11-04T11:07:47.676Z,31.50
2017-11-04T11:10:14.297Z,31.80
2017-11-04T11:12:41.059Z,31.40
2017-11-04T11:15:07.675Z,31.47
2017-11-04T11:17:34.472Z,30.67
2017-11-04T11:20:01.080Z,32.17
2017-11-04T11:22:27.706Z,31.20
2017-11-04T11:24:54.339Z,31.17
2017-11-04T11:27:20.949Z,30.03
2017-11-04T11:29:47.573Z,32.90
2017-11-04T11:32:14.167Z,30.20
2017-11-04T11:34:40.821Z,30.90
2017-11-04T11:37:07.485Z,31.03
2017-11-04T11:39:34.084Z,32.07
2017-11-04T11:42:00.729Z,32.30
2017-11-04T11:44:28.065Z,33.47
2017-11-04T11:46:55.736Z,33.93
2017-11-04T11:49:22.325Z,34.27
2017-11-04T11:51:48.965Z,35.20
2017-11-04T11:54:15.609Z,33.70
2017-11-04T11:56:42.250Z,33.47
2017-11-04T11:59:08.889Z,34.73
2017-11-04T12:01:36.190Z,34.10
2017-11-04T12:04:02.825Z,34.43
2017-11-04T12:06:29.494Z,36.87
2017-11-04T12:08:56.403Z,35.80
2017-11-04T12:11:23.303Z,36.33
2017-11-04T12:13:49.986Z,36.37
2017-11-04T12:16:16.607Z,39.80
2017-11-04T12:18:43.283Z,38.40
2017-11-04T12:21:09.891Z,37.60
2017-11-04T12:23:38.448Z,37.87
2017-11-04T12:26:05.727Z,40.83
2017-11-04T12:28:32.944Z,40.30
2017-11-04T12:30:59.526Z,39.07
2017-11-04T12:33:26.165Z,39.10
2017-11-04T12:35:52.786Z,41.27
2017-11-04T12:38:19.371Z,41.70
2017-11-04T12:40:46.030Z,41.23
2017-11-04T12:43:28.034Z,42.13
2017-11-04T12:45:56.126Z,41.97
2017-11-04T12:48:22.743Z,43.27
2017-11-04T12:50:49.673Z,43.80
2017-11-04T12:53:16.323Z,43.20
2017-11-04T12:55:42.934Z,44.10
2017-11-04T12:58:09.566Z,45.20
2017-11-04T13:00:36.187Z,46.47
2017-11-04T13:03:02.816Z,44.50
2017-11-04T13:05:29.473Z,42.43
2017-11-04T13:07:56.336Z,42.40
2017-11-04T13:10:23.347Z,44.20
2017-11-04T13:12:49.939Z,44.73
2017-11-04T13:15:16.714Z,46.90
2017-11-04T13:17:43.499Z,46.30
2017-11-04T13:20:10.119Z,45.57
2017-11-04T13:22:36.720Z,44.80
2017-11-04T13:25:03.361Z,45.90
2017-11-04T13:27:29.971Z,45.93
2017-11-04T13:29:56.697Z,46.60
2017-11-04T13:32:23.333Z,44.77
2017-11-04T13:34:50.115Z,45.50
2017-11-04T13:37:17.017Z,45.70
2017-11-04T13:39:43.657Z,46.27
2017-11-04T13:42:10.639Z,47.70
2017-11-04T13:44:37.440Z,47.63
2017-11-04T13:47:04.082Z,45.13
2017-11-04T13:49:30.719Z,47.10
2017-11-04T13:51:57.772Z,46.27
2017-11-04T13:54:24.376Z,47.23
2017-11-04T13:56:51.181Z,48.93
2017-11-04T13:59:17.813Z,48.60
2017-11-04T14:01:44.797Z,50.60
2017-11-04T14:04:11.470Z,48.80
2017-11-04T14:06:38.052Z,50.27
2017-11-04T14:09:14.489Z,48.57
2017-11-04T14:11:41.173Z,50.27
2017-11-04T14:14:07.801Z,48.97
2017-11-04T14:16:34.432Z,49.87
2017-11-04T14:19:01.044Z,50.10
2017-11-04T14:21:27.689Z,49.97
2017-11-04T14:23:54.307Z,48.27
2017-11-04T14:26:20.909Z,49.37
2017-11-04T14:28:47.575Z,48.93
2017-11-04T14:31:14.202Z,47.40
2017-11-04T14:33:40.900Z,49.80
2017-11-04T14:36:07.709Z,48.10
2017-11-04T14:38:34.318Z,49.17
2017-11-04T14:41:00.922Z,48.07
2017-11-04T14:43:27.517Z,50.70
2017-11-04T14:45:54.222Z,48.93
2017-11-04T14:48:20.840Z,50.47
2017-11-04T14:50:47.434Z,50.50
2017-11-04T14:53:14.052Z,49.60
2017-11-04T14:55:40.805Z,47.53
2017-11-04T14:58:07.859Z,48.60
2017-11-04T15:00:35.465Z,46.63
2017-11-04T15:03:02.124Z,50.03
2017-11-04T15:05:28.848Z,48.57
2017-11-04T15:07:55.487Z,50.00
2017-11-04T15:10:22.244Z,47.10
2017-11-04T15:12:48.874Z,49.23
2017-11-04T15:15:15.515Z,48.60
2017-11-04T15:17:42.152Z,50.10
2017-11-04T15:20:08.794Z,47.33
2017-11-04T15:22:35.402Z,48.23
2017-11-04T15:25:02.028Z,46.57
2017-11-04T15:27:28.673Z,47.67
2017-11-04T15:29:55.284Z,49.63
2017-11-04T15:32:21.914Z,47.63
2017-11-04T15:34:48.528Z,46.83
2017-11-04T15:37:15.167Z,46.50
2017-11-04T15:39:41.904Z,46.73
2017-11-04T15:42:08.856Z,49.27
2017-11-04T15:44:35.608Z,48.67
2017-11-04T15:47:02.238Z,47.33
2017-11-04T15:49:28.886Z,46.07
2017-11-04T15:51:55.489Z,48.03
2017-11-04T15:54:22.145Z,46.53
2017-11-04T15:56:49.059Z,47.63
2017-11-04T15:59:15.664Z,48.77
2017-11-04T16:01:42.311Z,48.07
2017-11-04T16:04:08.942Z,48.00
2017-11-04T16:06:35.624Z,48.80
2017-11-04T16:09:02.271Z,49.73
2017-11-04T16:11:28.909Z,46.97
2017-11-04T16:13:55.491Z,48.47
2017-11-04T16:16:22.115Z,49.40
2017-11-04T16:18:48.730Z,47.87
2017-11-04T16:21:15.353Z,47.90
2017-11-04T16:23:41.938Z,48.37
2017-11-04T16:26:08.596Z,48.87
2017-11-04T16:28:35.206Z,48.70
2017-11-04T16:31:01.978Z,46.30
2017-11-04T16:33:28.786Z,48.00
2017-11-04T16:35:55.398Z,49.87
2017-11-04T16:38:22.646Z,50.73
2017-11-04T16:40:49.563Z,51.13
2017-11-04T16:43:16.152Z,48.60
2017-11-04T16:45:42.781Z,49.90
2017-11-04T16:48:09.408Z,51.67
2017-11-04T16:50:36.167Z,51.23
2017-11-04T16:53:02.836Z,53.43
2017-11-04T16:55:29.450Z,52.10
2017-11-04T16:57:56.121Z,50.70
2017-11-04T17:00:22.776Z,52.37
2017-11-04T17:02:49.394Z,49.20
2017-11-04T17:05:16.090Z,52.13
2017-11-04T17:07:42.727Z,51.90
2017-11-04T17:10:09.384Z,52.97
2017-11-04T17:12:36.047Z,52.03
2017-11-04T17:15:02.664Z,51.97
2017-11-04T17:17:29.286Z,51.17
2017-11-04T17:19:56.218Z,50.40
2017-11-04T17:22:22.952Z,52.80
2017-11-04T17:24:50.766Z,52.67
2017-11-04T17:27:17.442Z,53.50
2017-11-04T17:29:44.354Z,52.70
2017-11-04T17:32:11.020Z,52.47
2017-11-04T17:34:37.682Z,52.10
2017-11-04T17:37:04.371Z,53.50
2017-11-04T17:39:31.433Z,50.83
2017-11-04T17:41:59.681Z,51.00
2017-11-04T17:44:26.446Z,50.70
2017-11-04T17:46:53.217Z,49.43
2017-11-04T17:49:20.106Z,48.80
2017-11-04T17:51:48.396Z,51.60
2017-11-04T17:54:15.409Z,49.47
2017-11-04T17:56:42.449Z,49.10
2017-11-04T17:59:09.154Z,47.87
2017-11-04T18:01:36.117Z,48.80
2017-11-04T18:04:03.052Z,46.80
2017-11-04T18:06:29.807Z,47.87
2017-11-04T18:08:58.505Z,48.70
2017-11-04T18:14:01.693Z,45.37
2017-11-04T18:16:28.328Z,45.53
2017-11-04T18:18:55.079Z,45.13
2017-11-04T18:21:21.708Z,50.37
2017-11-04T18:23:48.325Z,47.93
2017-11-04T18:26:15.001Z,47.87
2017-11-04T18:28:41.611Z,47.80
2017-11-04T18:31:08.337Z,46.30
2017-11-04T18:33:35.489Z,48.25
2017-11-04T18:36:04.540Z,50.00
2017-11-04T18:38:31.210Z,47.10
2017-11-04T18:40:57.811Z,51.60
2017-11-04T18:43:24.442Z,46.60
2017-11-04T18:45:51.049Z,48.50
2017-11-04T18:48:17.694Z,45.87
2017-11-04T18:50:44.578Z,45.93
2017-11-04T18:53:11.200Z,46.10
2017-11-04T18:55:38.537Z,46.70
2017-11-04T18:58:05.133Z,47.43
2017-11-04T19:00:31.857Z,48.50
2017-11-04T19:02:58.468Z,47.20
2017-11-04T19:05:25.169Z,46.70
2017-11-04T19:07:52.025Z,47.20
2017-11-04T19:10:18.642Z,46.90
2017-11-04T19:12:45.780Z,49.07
2017-11-04T19:15:12.496Z,49.00
2017-11-04T19:17:39.098Z,56.27
2017-11-04T19:20:05.755Z,55.50
2017-11-04T19:22:32.379Z,58.07
2017-11-04T19:24:59.297Z,52.07
2017-11-04T19:27:25.910Z,51.50
2017-11-04T19:29:52.528Z,50.87
2017-11-04T19:32:19.157Z,50.23
2017-11-04T19:34:45.769Z,48.37
2017-11-04T19:37:12.544Z,47.73
2017-11-04T19:39:40.528Z,45.60
2017-11-04T19:42:07.248Z,48.27
2017-11-04T19:44:36.244Z,47.43
2017-11-04T19:47:02.972Z,47.07
2017-11-04T19:49:29.639Z,49.90
2017-11-04T19:51:56.577Z,48.20
2017-11-04T19:54:23.573Z,49.07
2017-11-04T19:56:50.215Z,49.28
2017-11-04T19:59:17.828Z,51.27
2017-11-04T20:01:44.701Z,47.63
2017-11-04T20:04:11.436Z,47.10
2017-11-04T20:06:38.203Z,44.97
2017-11-04T20:09:04.899Z,42.90
2017-11-04T20:11:31.716Z,43.40
2017-11-04T20:13:58.349Z,42.93
2017-11-04T20:16:25.008Z,40.57
2017-11-04T20:18:51.616Z,40.30
2017-11-04T20:21:18.506Z,39.40
2017-11-04T20:23:45.138Z,40.90
2017-11-04T20:26:12.739Z,41.03
2017-11-04T20:28:39.396Z,39.60
2017-11-04T20:31:06.141Z,39.67
2017-11-04T20:33:32.757Z,38.63
2017-11-04T20:35:59.404Z,37.70
2017-11-04T20:38:26.314Z,40.10
2017-11-04T20:40:53.039Z,41.63
2017-11-04T20:43:20.207Z,40.40
2017-11-04T20:45:48.068Z,40.60
2017-11-04T20:48:18.664Z,39.60
2017-11-04T20:50:45.374Z,38.93
2017-11-04T20:53:12.595Z,40.10
2017-11-04T20:55:39.257Z,39.80
2017-11-04T20:58:06.030Z,37.40
2017-11-04T21:00:32.681Z,38.47
2017-11-04T21:02:59.620Z,38.13
2017-11-04T21:05:26.391Z,41.70
2017-11-04T21:07:53.032Z,36.17
2017-11-04T21:10:19.919Z,39.77
2017-11-04T21:12:47.840Z,38.27
2017-11-04T21:15:14.785Z,39.10
2017-11-04T21:17:41.701Z,38.00
2017-11-04T21:20:08.600Z,37.73
2017-11-04T21:22:36.490Z,37.03
2017-11-04T21:25:03.191Z,38.10
2017-11-04T21:27:29.921Z,39.23
2017-11-04T21:29:56.631Z,38.53
2017-11-04T21:32:23.436Z,38.00
2017-11-04T21:34:50.136Z,38.53
2017-11-04T21:37:16.932Z,39.53
2017-11-04T21:39:44.021Z,37.20
2017-11-04T21:42:10.882Z,37.53
2017-11-04T21:44:37.526Z,37.70
2017-11-04T21:47:04.415Z,34.53
2017-11-04T21:49:31.154Z,38.60
2017-11-04T21:51:57.845Z,36.87
2017-11-04T21:54:24.616Z,36.17
2017-11-04T21:56:51.432Z,34.83
2017-11-04T21:59:19.589Z,37.60
2017-11-04T22:01:46.223Z,36.07
2017-11-04T22:04:13.007Z,34.50
2017-11-04T22:06:39.613Z,36.03
2017-11-04T22:09:06.429Z,35.13
2017-11-04T22:11:33.151Z,37.00
2017-11-04T22:13:59.745Z,36.17
2017-11-04T22:16:27.723Z,35.70
2017-11-04T22:18:54.361Z,35.97
2017-11-04T22:21:20.968Z,36.20
2017-11-04T22:23:47.598Z,36.53
2017-11-04T22:26:14.625Z,37.40
2017-11-04T22:28:41.291Z,40.00
2017-11-04T22:31:07.901Z,42.30
2017-11-04T22:33:34.549Z,41.57
2017-11-04T22:36:01.175Z,46.97
2017-11-04T22:38:27.798Z,45.10
2017-11-04T22:40:54.512Z,44.83
2017-11-04T22:43:21.140Z,47.40
2017-11-04T22:45:47.790Z,47.27
2017-11-04T22:48:14.389Z,45.27
2017-11-04T22:50:41.006Z,45.80
2017-11-04T22:53:07.682Z,46.97
2017-11-04T22:55:34.548Z,46.30
2017-11-04T22:58:01.559Z,44.63
2017-11-04T23:00:28.231Z,44.87
2017-11-04T23:02:55.136Z,43.97
2017-11-04T23:05:21.756Z,43.43
2017-11-04T23:07:48.350Z,45.13
2017-11-04T23:10:14.946Z,45.63
2017-11-04T23:12:41.605Z,43.80
2017-11-04T23:15:08.242Z,43.40
2017-11-04T23:17:35.098Z,42.10
2017-11-04T23:20:01.680Z,45.05
2017-11-04T23:22:28.360Z,43.40
2017-11-04T23:24:54.979Z,41.73
2017-11-04T23:27:22.025Z,43.23
2017-11-04T23:29:48.658Z,43.30
2017-11-04T23:32:15.282Z,43.30
2017-11-04T23:34:41.893Z,42.03
2017-11-04T23:37:08.486Z,42.17
2017-11-04T23:39:35.279Z,43.43
2017-11-04T23:42:01.899Z,42.53
2017-11-04T23:44:28.507Z,43.10
2017-11-04T23:46:55.134Z,41.70
2017-11-04T23:49:21.761Z,40.20
2017-11-04T23:51:48.383Z,40.70
2017-11-04T23:54:15.079Z,40.57
2017-11-04T23:56:41.758Z,41.07
2017-11-04T23:59:08.525Z,43.07
